createdAt,value
2019-03-19T00:00:36.893Z,99.90
2019-03-19T00:03:10.750Z,99.90
2019-03-19T00:09:25.390Z,99.90
2019-03-19T00:11:59.123Z,99.90
2019-03-19T00:14:32.858Z,99.90
2019-03-19T00:17:06.671Z,99.90
2019-03-19T00:19:40.286Z,99.90
2019-03-19T00:22:13.891Z,99.90
2019-03-19T00:24:47.571Z,99.90
2019-03-19T00:27:23.930Z,99.90
2019-03-19T00:29:57.629Z,99.90
2019-03-19T00:32:31.447Z,99.90
2019-03-19T00:35:07.133Z,99.90
2019-03-19T00:37:40.959Z,99.90
2019-03-19T00:40:15.675Z,99.90
2019-03-19T00:42:49.491Z,99.90
2019-03-19T00:45:23.292Z,99.90
2019-03-19T00:47:56.999Z,99.90
2019-03-19T00:50:30.655Z,99.90
2019-03-19T00:53:04.401Z,99.90
2019-03-19T00:55:40.880Z,99.90
2019-03-19T00:58:13.495Z,99.90
2019-03-19T01:00:47.215Z,99.90
2019-03-19T01:03:21.757Z,99.90
2019-03-19T01:09:33.491Z,99.90
2019-03-19T01:12:07.041Z,99.90
2019-03-19T01:14:40.846Z,99.90
2019-03-19T01:17:14.422Z,99.90
2019-03-19T01:19:48.068Z,99.90
2019-03-19T01:25:55.661Z,99.90
2019-03-19T01:28:30.096Z,99.90
2019-03-19T01:31:03.734Z,99.90
2019-03-19T01:33:37.393Z,99.90
2019-03-19T01:36:11.245Z,99.90
2019-03-19T01:38:44.883Z,99.90
2019-03-19T01:41:18.707Z,99.90
2019-03-19T01:43:52.334Z,99.90
2019-03-19T01:46:26.061Z,99.90
2019-03-19T01:48:59.651Z,99.90
2019-03-19T01:52:26.478Z,99.90
2019-03-19T01:55:00.320Z,99.90
2019-03-19T01:57:34.122Z,99.90
2019-03-19T02:00:13.931Z,99.90
2019-03-19T02:02:47.646Z,99.90
2019-03-19T02:05:21.455Z,99.90
2019-03-19T02:07:55.181Z,99.90
2019-03-19T02:10:28.908Z,99.90
2019-03-19T02:13:05.610Z,99.90
2019-03-19T02:15:39.450Z,99.90
2019-03-19T02:18:13.044Z,99.90
2019-03-19T02:20:46.708Z,99.90
2019-03-19T02:23:20.415Z,99.90
2019-03-19T02:25:54.058Z,99.90
2019-03-19T02:28:27.667Z,99.90
2019-03-19T02:31:01.260Z,99.90
2019-03-19T02:33:37.621Z,99.90
2019-03-19T02:39:43.025Z,99.90
2019-03-19T02:42:16.598Z,99.90
2019-03-19T02:44:52.985Z,99.90
2019-03-19T02:47:26.640Z,99.90
2019-03-19T02:50:00.662Z,99.90
2019-03-19T02:56:06.708Z,99.90
2019-03-19T02:58:40.806Z,99.90
2019-03-19T03:01:14.418Z,99.90
2019-03-19T03:03:48.039Z,99.90
2019-03-19T03:06:21.716Z,99.90
2019-03-19T03:08:55.467Z,99.90
2019-03-19T03:11:29.160Z,99.90
2019-03-19T03:14:02.821Z,99.90
2019-03-19T03:16:36.634Z,99.90
2019-03-19T03:19:10.229Z,99.90
2019-03-19T03:22:22.432Z,99.90
2019-03-19T03:24:56.461Z,99.90
2019-03-19T03:27:30.181Z,99.90
2019-03-19T03:30:05.730Z,99.90
2019-03-19T03:32:39.469Z,99.90
2019-03-19T03:35:13.573Z,99.90
2019-03-19T03:37:47.647Z,99.90
2019-03-19T03:40:21.550Z,99.90
2019-03-19T03:42:55.229Z,99.90
2019-03-19T03:45:29.057Z,99.90
2019-03-19T03:48:02.731Z,99.90
2019-03-19T03:50:36.399Z,99.90
2019-03-19T03:56:41.726Z,99.90
2019-03-19T03:59:15.331Z,99.90
2019-03-19T04:01:49.058Z,99.90
2019-03-19T04:04:24.440Z,99.90
2019-03-19T04:10:30.374Z,99.90
2019-03-19T04:13:04.435Z,99.90
2019-03-19T04:15:40.655Z,99.90
2019-03-19T04:18:14.262Z,99.90
2019-03-19T04:20:47.893Z,99.90
2019-03-19T04:26:48.431Z,99.90
2019-03-19T04:29:22.254Z,99.90
2019-03-19T04:31:55.919Z,99.90
2019-03-19T04:34:29.622Z,99.90
2019-03-19T04:37:03.304Z,99.90
2019-03-19T04:39:36.976Z,99.90
2019-03-19T04:42:11.533Z,99.90
2019-03-19T04:44:45.242Z,99.90
2019-03-19T04:47:18.856Z,99.90
2019-03-19T04:49:52.500Z,99.90
2019-03-19T04:53:18.644Z,99.90
2019-03-19T04:55:52.280Z,99.90
2019-03-19T04:58:25.952Z,99.90
2019-03-19T05:00:59.648Z,99.90
2019-03-19T05:03:33.300Z,99.90
2019-03-19T05:06:06.910Z,99.90
2019-03-19T05:08:40.902Z,99.90
2019-03-19T05:11:14.512Z,99.90
2019-03-19T05:13:48.130Z,99.90
2019-03-19T05:16:21.748Z,99.90
2019-03-19T05:18:55.408Z,99.90
2019-03-19T05:21:29.130Z,99.90
2019-03-19T05:24:02.712Z,99.90
2019-03-19T05:26:36.560Z,99.90
2019-03-19T05:29:10.164Z,99.90
2019-03-19T05:31:43.806Z,99.90
2019-03-19T05:34:17.450Z,99.90
2019-03-19T05:40:58.466Z,99.90
2019-03-19T05:43:32.109Z,99.90
2019-03-19T05:46:05.770Z,99.90
2019-03-19T05:48:39.516Z,99.90
2019-03-19T05:51:13.171Z,99.90
2019-03-19T05:57:13.838Z,99.90
2019-03-19T05:59:47.438Z,99.90
2019-03-19T06:02:21.036Z,99.90
2019-03-19T06:04:54.638Z,99.90
2019-03-19T06:07:28.302Z,99.90
2019-03-19T06:10:01.883Z,99.90
2019-03-19T06:12:35.509Z,99.90
2019-03-19T06:15:14.221Z,99.90
2019-03-19T06:17:47.916Z,99.90
2019-03-19T06:20:21.818Z,99.90
2019-03-19T06:23:40.970Z,99.90
2019-03-19T06:26:16.395Z,99.90
2019-03-19T06:28:49.978Z,99.90
2019-03-19T06:31:23.596Z,99.90
2019-03-19T06:33:57.200Z,99.60
2019-03-19T06:36:30.941Z,99.30
2019-03-19T06:39:07.193Z,98.80
2019-03-19T06:41:40.894Z,98.70
2019-03-19T06:44:16.554Z,98.40
2019-03-19T06:46:50.336Z,97.80
2019-03-19T06:49:24.030Z,96.20
2019-03-19T06:51:59.046Z,92.30
2019-03-19T06:54:32.982Z,84.00
2019-03-19T06:57:06.661Z,70.60
2019-03-19T06:59:40.316Z,62.90
2019-03-19T07:02:14.296Z,58.40
2019-03-19T07:04:48.096Z,54.30
2019-03-19T07:11:20.661Z,53.50
2019-03-19T07:13:54.588Z,50.70
2019-03-19T07:16:28.280Z,48.80
2019-03-19T07:19:03.003Z,50.40
2019-03-19T07:21:36.706Z,50.20
2019-03-19T07:27:41.700Z,51.00
2019-03-19T07:30:20.051Z,48.00
2019-03-19T07:32:53.836Z,50.40
2019-03-19T07:35:27.648Z,51.60
2019-03-19T07:41:33.271Z,52.80
2019-03-19T07:44:06.912Z,58.30
2019-03-19T07:46:40.553Z,62.60
2019-03-19T07:49:14.274Z,67.40
2019-03-19T07:51:47.912Z,69.40
2019-03-19T07:54:23.648Z,72.90
2019-03-19T07:56:57.302Z,76.30
2019-03-19T07:59:30.916Z,78.20
2019-03-19T08:02:04.619Z,78.50
2019-03-19T08:04:39.688Z,79.50
2019-03-19T08:07:13.294Z,78.90
2019-03-19T08:09:46.900Z,78.60
2019-03-19T08:12:20.550Z,79.30
2019-03-19T08:14:54.537Z,80.90
2019-03-19T08:17:28.138Z,81.70
2019-03-19T08:20:01.940Z,83.70
2019-03-19T08:22:35.684Z,83.90
2019-03-19T08:25:11.291Z,84.60
2019-03-19T08:27:45.156Z,84.80
2019-03-19T08:30:24.512Z,83.10
2019-03-19T08:32:58.457Z,83.10
2019-03-19T08:35:32.105Z,84.10
2019-03-19T08:42:11.992Z,83.80
2019-03-19T08:44:45.656Z,84.50
2019-03-19T08:47:19.295Z,85.60
2019-03-19T08:49:53.095Z,85.20
2019-03-19T08:52:26.831Z,85.40
2019-03-19T08:58:32.792Z,85.20
2019-03-19T09:01:06.393Z,86.50
2019-03-19T09:03:40.018Z,85.20
2019-03-19T09:06:13.725Z,83.00
2019-03-19T09:12:19.099Z,81.20
2019-03-19T09:14:52.695Z,79.80
2019-03-19T09:17:26.671Z,77.80
2019-03-19T09:20:00.356Z,78.10
2019-03-19T09:22:33.975Z,77.30
2019-03-19T09:25:28.379Z,78.30
2019-03-19T09:28:01.968Z,76.20
2019-03-19T09:30:35.661Z,75.90
2019-03-19T09:33:09.515Z,76.50
2019-03-19T09:35:43.329Z,76.90
2019-03-19T09:41:57.873Z,78.80
2019-03-19T09:44:31.513Z,82.50
2019-03-19T09:47:05.285Z,83.00
2019-03-19T09:49:39.133Z,83.60
2019-03-19T09:52:12.829Z,84.80
2019-03-19T09:54:46.422Z,84.20
2019-03-19T09:57:20.099Z,82.60
2019-03-19T09:59:53.731Z,81.50
2019-03-19T10:02:27.377Z,81.50
2019-03-19T10:05:00.978Z,78.90
2019-03-19T10:07:34.688Z,78.50
2019-03-19T10:10:16.247Z,78.70
2019-03-19T10:12:49.922Z,77.70
2019-03-19T10:15:23.570Z,78.40
2019-03-19T10:17:57.180Z,78.90
2019-03-19T10:20:30.827Z,78.50
2019-03-19T10:23:04.425Z,79.70
2019-03-19T10:29:05.166Z,76.80
2019-03-19T10:31:38.767Z,77.40
2019-03-19T10:34:12.701Z,77.90
2019-03-19T10:36:47.015Z,78.00
2019-03-19T10:42:48.161Z,77.20
2019-03-19T10:45:23.149Z,75.40
2019-03-19T10:47:56.960Z,74.10
2019-03-19T10:50:30.906Z,73.20
2019-03-19T10:53:04.710Z,73.30
2019-03-19T10:55:38.447Z,70.50
2019-03-19T10:58:12.248Z,72.40
2019-03-19T11:00:46.044Z,73.80
2019-03-19T11:03:19.655Z,74.60
2019-03-19T11:05:53.343Z,77.00
2019-03-19T11:08:26.933Z,73.40
2019-03-19T11:11:00.548Z,72.30
2019-03-19T11:13:34.600Z,73.40
2019-03-19T11:16:08.440Z,69.70
2019-03-19T11:18:42.197Z,70.10
2019-03-19T11:21:15.858Z,67.50
2019-03-19T11:24:09.952Z,68.90
2019-03-19T11:26:43.634Z,72.20
2019-03-19T11:29:17.285Z,69.90
2019-03-19T11:31:51.243Z,70.00
2019-03-19T11:34:24.989Z,69.10
2019-03-19T11:36:58.731Z,69.00
2019-03-19T11:39:32.377Z,66.40
2019-03-19T11:42:06.112Z,62.20
2019-03-19T11:44:39.735Z,60.30
2019-03-19T11:47:13.480Z,63.20
2019-03-19T11:49:47.197Z,65.20
2019-03-19T11:52:20.901Z,64.50
2019-03-19T11:58:22.562Z,61.00
2019-03-19T12:00:57.947Z,59.20
2019-03-19T12:03:31.549Z,61.20
2019-03-19T12:06:05.591Z,59.10
2019-03-19T12:08:39.263Z,57.30
2019-03-19T12:14:40.695Z,56.30
2019-03-19T12:17:14.325Z,56.20
2019-03-19T12:19:47.994Z,56.00
2019-03-19T12:22:21.679Z,55.40
2019-03-19T12:28:23.197Z,55.80
2019-03-19T12:30:56.782Z,54.60
2019-03-19T12:33:40.402Z,52.40
2019-03-19T12:36:05.823Z,52.70
2019-03-19T12:38:39.543Z,53.40
2019-03-19T12:41:28.411Z,53.30
2019-03-19T12:44:02.299Z,53.00
2019-03-19T12:46:36.356Z,53.40
2019-03-19T12:49:10.088Z,52.10
2019-03-19T12:51:43.914Z,52.10
2019-03-19T12:57:49.059Z,48.20
2019-03-19T13:00:33.432Z,49.60
2019-03-19T13:02:59.097Z,48.80
2019-03-19T13:05:32.640Z,51.00
2019-03-19T13:08:06.297Z,51.30
2019-03-19T13:10:40.039Z,49.60
2019-03-19T13:13:13.701Z,48.80
2019-03-19T13:15:48.852Z,50.20
2019-03-19T13:18:22.456Z,50.00
2019-03-19T13:20:57.085Z,49.30
2019-03-19T13:23:30.661Z,48.20
2019-03-19T13:26:04.407Z,47.20
2019-03-19T13:28:40.178Z,47.00
2019-03-19T13:31:13.883Z,45.00
2019-03-19T13:33:50.346Z,45.80
2019-03-19T13:36:24.004Z,47.70
2019-03-19T13:38:57.559Z,47.70
2019-03-19T13:45:03.511Z,46.00
2019-03-19T13:47:37.190Z,44.80
2019-03-19T13:50:20.903Z,45.80
2019-03-19T13:52:54.541Z,46.30
2019-03-19T13:59:00.540Z,47.40
2019-03-19T14:01:34.113Z,48.60
2019-03-19T14:04:07.792Z,50.30
2019-03-19T14:06:41.496Z,48.60
2019-03-19T14:09:15.220Z,47.60
2019-03-19T14:11:48.985Z,47.10
2019-03-19T14:14:22.625Z,48.00
2019-03-19T14:16:56.284Z,48.20
2019-03-19T14:19:30.270Z,47.20
2019-03-19T14:22:03.992Z,48.30
2019-03-19T14:28:09.886Z,48.40
2019-03-19T14:30:43.602Z,47.80
2019-03-19T14:33:17.194Z,47.80
2019-03-19T14:35:51.001Z,47.80
2019-03-19T14:38:24.690Z,48.20
2019-03-19T14:40:58.390Z,48.50
2019-03-19T14:43:32.242Z,49.30
2019-03-19T14:46:06.071Z,50.20
2019-03-19T14:48:39.725Z,51.50
2019-03-19T14:51:13.350Z,52.70
2019-03-19T14:53:47.029Z,53.80
2019-03-19T14:56:20.686Z,52.80
2019-03-19T14:58:54.291Z,53.30
2019-03-19T15:01:28.098Z,54.50
2019-03-19T15:04:01.826Z,55.60
2019-03-19T15:06:35.710Z,56.70
2019-03-19T15:09:09.470Z,57.50
2019-03-19T15:15:15.816Z,58.90
2019-03-19T15:17:49.631Z,58.90
2019-03-19T15:20:28.545Z,58.90
2019-03-19T15:23:02.232Z,56.60
2019-03-19T15:29:03.215Z,55.30
2019-03-19T15:31:36.897Z,53.60
2019-03-19T15:34:10.686Z,54.10
2019-03-19T15:36:44.244Z,52.90
2019-03-19T15:39:17.921Z,51.00
2019-03-19T15:45:27.413Z,52.70
2019-03-19T15:48:01.104Z,54.60
2019-03-19T15:50:34.704Z,57.00
2019-03-19T15:53:08.356Z,57.90
2019-03-19T15:55:41.949Z,58.80
2019-03-19T15:58:15.612Z,61.20
2019-03-19T16:00:49.347Z,62.50
2019-03-19T16:03:23.011Z,62.10
2019-03-19T16:05:56.679Z,63.80
2019-03-19T16:08:30.304Z,64.30
2019-03-19T16:11:43.997Z,65.50
2019-03-19T16:14:17.630Z,67.20
2019-03-19T16:16:51.299Z,68.10
2019-03-19T16:19:24.885Z,67.90
2019-03-19T16:21:58.575Z,68.30
2019-03-19T16:24:32.281Z,68.50
2019-03-19T16:27:05.951Z,70.50
2019-03-19T16:29:40.013Z,70.40
2019-03-19T16:32:14.025Z,71.50
2019-03-19T16:34:47.657Z,73.40
2019-03-19T16:37:21.249Z,74.40
2019-03-19T16:39:55.238Z,74.00
2019-03-19T16:42:30.391Z,73.80
2019-03-19T16:45:05.706Z,73.70
2019-03-19T16:47:43.102Z,73.10
2019-03-19T16:50:23.406Z,73.30
2019-03-19T16:52:57.022Z,74.10
2019-03-19T16:59:21.254Z,75.10
2019-03-19T17:02:01.803Z,75.90
2019-03-19T17:04:30.227Z,76.80
2019-03-19T17:07:03.930Z,76.60
2019-03-19T17:09:37.675Z,77.00
2019-03-19T17:15:38.811Z,76.00
2019-03-19T17:18:12.399Z,76.10
2019-03-19T17:20:46.001Z,75.90
2019-03-19T17:23:19.723Z,76.40
2019-03-19T17:25:53.331Z,75.90
2019-03-19T17:28:26.983Z,75.60
2019-03-19T17:31:00.686Z,75.30
2019-03-19T17:33:35.355Z,75.90
2019-03-19T17:36:09.015Z,76.30
2019-03-19T17:38:42.616Z,77.20
2019-03-19T17:42:01.584Z,77.10
2019-03-19T17:44:35.359Z,77.70
2019-03-19T17:47:09.133Z,78.20
2019-03-19T17:49:42.725Z,78.50
2019-03-19T17:52:16.337Z,78.50
2019-03-19T17:54:49.944Z,79.20
2019-03-19T17:57:23.571Z,79.20
2019-03-19T17:59:57.814Z,79.60
2019-03-19T18:02:31.493Z,80.20
2019-03-19T18:05:07.633Z,80.80
2019-03-19T18:07:41.874Z,81.20
2019-03-19T18:10:15.556Z,81.50
2019-03-19T18:12:49.325Z,82.10
2019-03-19T18:15:23.311Z,82.70
2019-03-19T18:17:57.072Z,83.60
2019-03-19T18:20:30.711Z,83.60
2019-03-19T18:23:04.466Z,84.30
2019-03-19T18:25:38.375Z,84.70
2019-03-19T18:28:12.673Z,85.00
2019-03-19T18:30:46.383Z,85.40
2019-03-19T18:33:20.118Z,86.20
2019-03-19T18:35:56.303Z,86.30
2019-03-19T18:38:29.103Z,87.40
2019-03-19T18:44:46.604Z,87.60
2019-03-19T18:47:20.180Z,88.00
2019-03-19T18:49:53.861Z,88.50
2019-03-19T18:52:27.547Z,89.00
2019-03-19T18:55:01.211Z,89.30
2019-03-19T19:01:01.949Z,90.00
2019-03-19T19:03:35.578Z,90.20
2019-03-19T19:06:09.575Z,90.50
2019-03-19T19:08:43.173Z,90.80
2019-03-19T19:11:16.854Z,91.00
2019-03-19T19:13:50.455Z,91.20
2019-03-19T19:16:24.644Z,91.40
2019-03-19T19:18:58.205Z,91.60
2019-03-19T19:21:31.974Z,91.70
2019-03-19T19:24:05.578Z,91.70
2019-03-19T19:27:28.969Z,91.80
2019-03-19T19:30:04.274Z,92.10
2019-03-19T19:32:38.203Z,92.00
2019-03-19T19:35:11.986Z,92.00
2019-03-19T19:37:45.763Z,92.20
2019-03-19T19:40:19.547Z,92.40
2019-03-19T19:42:53.272Z,92.40
2019-03-19T19:45:27.096Z,92.40
2019-03-19T19:48:03.636Z,92.40
2019-03-19T19:50:37.309Z,92.40
2019-03-19T19:53:15.781Z,92.50
2019-03-19T19:55:49.138Z,92.60
2019-03-19T19:58:23.275Z,92.60
2019-03-19T20:00:57.157Z,92.80
2019-03-19T20:03:30.818Z,93.00
2019-03-19T20:06:04.669Z,93.10
2019-03-19T20:08:38.484Z,93.30
2019-03-19T20:14:59.143Z,94.00
2019-03-19T20:17:32.971Z,94.00
2019-03-19T20:20:15.627Z,94.20
2019-03-19T20:22:49.297Z,94.50
2019-03-19T20:25:23.107Z,94.70
2019-03-19T20:31:27.804Z,95.10
2019-03-19T20:34:01.744Z,95.30
2019-03-19T20:36:37.354Z,95.50
2019-03-19T20:39:10.955Z,95.70
2019-03-19T20:45:27.703Z,96.30
2019-03-19T20:48:02.988Z,96.50
2019-03-19T20:50:40.875Z,96.60
2019-03-19T20:53:14.648Z,96.70
2019-03-19T20:55:54.603Z,96.90
2019-03-19T20:58:28.350Z,97.00
2019-03-19T21:01:03.703Z,97.00
2019-03-19T21:03:37.962Z,97.10
2019-03-19T21:06:11.766Z,97.50
2019-03-19T21:08:46.461Z,97.20
2019-03-19T21:14:48.548Z,97.40
2019-03-19T21:17:22.554Z,97.60
2019-03-19T21:19:56.208Z,97.70
2019-03-19T21:22:29.955Z,97.80
2019-03-19T21:25:04.096Z,97.80
2019-03-19T21:27:37.880Z,97.90
2019-03-19T21:30:22.633Z,98.10
2019-03-19T21:32:56.337Z,98.20
2019-03-19T21:35:29.920Z,98.30
2019-03-19T21:38:03.603Z,98.30
2019-03-19T21:40:37.384Z,98.40
2019-03-19T21:46:42.385Z,98.60
2019-03-19T21:49:15.973Z,98.60
2019-03-19T21:51:49.652Z,98.80
2019-03-19T21:54:23.457Z,98.90
2019-03-19T22:00:38.408Z,99.10
2019-03-19T22:03:12.250Z,99.30
2019-03-19T22:05:45.888Z,99.30
2019-03-19T22:08:19.474Z,99.40
2019-03-19T22:10:53.128Z,99.50
2019-03-19T22:16:58.937Z,99.80
2019-03-19T22:19:32.509Z,99.90
2019-03-19T22:22:06.208Z,99.90
2019-03-19T22:24:40.016Z,99.90
2019-03-19T22:27:13.678Z,99.90
2019-03-19T22:29:47.629Z,99.90
2019-03-19T22:32:21.249Z,99.90
2019-03-19T22:34:54.972Z,99.90
2019-03-19T22:37:28.651Z,99.90
2019-03-19T22:40:02.559Z,99.90
2019-03-19T22:43:25.806Z,99.90
2019-03-19T22:46:00.487Z,99.90
2019-03-19T22:48:34.109Z,99.90
2019-03-19T22:51:07.728Z,99.90
2019-03-19T22:53:42.473Z,99.90
2019-03-19T22:56:17.608Z,99.90
2019-03-19T22:58:51.362Z,99.90
2019-03-19T23:01:25.744Z,99.90
2019-03-19T23:03:59.342Z,99.90
2019-03-19T23:06:33.138Z,99.90
2019-03-19T23:09:07.120Z,99.90
2019-03-19T23:11:40.876Z,99.90
2019-03-19T23:14:14.558Z,99.90
2019-03-19T23:16:48.207Z,99.90
2019-03-19T23:19:21.944Z,99.90
2019-03-19T23:21:55.714Z,99.90
2019-03-19T23:24:29.957Z,99.90
2019-03-19T23:27:23.706Z,99.90
2019-03-19T23:29:57.312Z,99.90
2019-03-19T23:32:30.979Z,99.90
2019-03-19T23:35:05.928Z,99.90
2019-03-19T23:37:39.631Z,99.90
2019-03-19T23:40:16.697Z,99.90
2019-03-19T23:46:17.371Z,99.90
2019-03-19T23:48:51.108Z,99.90
2019-03-19T23:51:24.924Z,99.90
2019-03-19T23:53:58.496Z,99.90
2019-03-19T23:56:32.175Z,99.90
